Terminal Aerodrome Forecast
Issued by NWS Wilmington, NC

Current Version | Previous Version | Text Only | Print | Product List | Glossary On
Versions: 1 2 3 4 5 6 7 8 9 10 11 12 13 14 15 16 17 18 19 20 21 22 23 24 25 26
000
FTUS42 KILM 031900 AAA
TAFILM
TAF AMD
KILM 031938Z 0320/0418 07006KT P6SM VCSH OVC020
     FM032200 11005KT 6SM BR VCSH SCT007 OVC015
     FM040100 15005KT 4SM BR BKN007 OVC015
     FM040300 20006KT 6SM BR VCSH BKN008 BKN100
     FM040700 22009KT 2SM BR BKN004 BKN012
     FM041500 22010KT 6SM BR BKN009=

USA.gov is the U.S. government's official web portal to all federal, state and local government web resources and services.